Time;durP1;ratioP1;P1;durP2;ratioP2;P2;SDS_P1;SDS_P2;PMS_P1;PMS_P2;Temp;Humidity;BMP_temperature;BMP_pressure;BME280_temperature;BME280_humidity;BME280_pressure;Samples;Min_cycle;Max_cycle;Signal;HPM_P1;HPM_P2
2022/03/05 00:00:33;;;;;;;13.23;3.03;;;6.50;99.90;;;;;;5039644;28;20043;-87
2022/03/05 00:02:59;;;;;;;15.85;3.75;;;6.50;99.90;;;;;;5051426;28;20056;-86
2022/03/05 00:05:26;;;;;;;13.90;3.70;;;6.40;99.90;;;;;;5048552;28;20025;-86
2022/03/05 00:07:52;;;;;;;16.30;3.75;;;6.50;99.90;;;;;;5050425;28;20033;-87
2022/03/05 00:10:19;;;;;;;8.68;3.63;;;6.40;99.90;;;;;;5047158;28;20021;-87
2022/03/05 00:12:46;;;;;;;14.68;3.28;;;6.40;99.90;;;;;;5050744;28;20032;-86
2022/03/05 00:15:11;;;;;;;12.52;3.20;;;6.50;99.90;;;;;;5051001;28;20021;-86
2022/03/05 00:17:37;;;;;;;14.48;3.53;;;6.40;99.90;;;;;;5051186;28;20521;-86
2022/03/05 00:20:05;;;;;;;15.65;3.80;;;6.40;99.90;;;;;;5051041;28;20090;-87
2022/03/05 00:22:31;;;;;;;9.13;2.80;;;6.40;99.90;;;;;;5047134;28;20028;-86
2022/03/05 00:24:56;;;;;;;19.70;4.40;;;6.40;99.90;;;;;;5041708;28;20029;-86
2022/03/05 00:27:23;;;;;;;8.90;3.70;;;6.40;99.90;;;;;;5050701;28;20021;-86
2022/03/05 00:29:49;;;;;;;9.52;4.25;;;6.40;99.90;;;;;;5050741;28;20036;-86
2022/03/05 00:32:15;;;;;;;12.25;3.42;;;6.40;99.90;;;;;;5052632;28;20029;-86
2022/03/05 00:34:41;;;;;;;7.38;3.00;;;6.40;99.90;;;;;;5050416;28;20025;-86
2022/03/05 00:37:08;;;;;;;11.07;3.45;;;6.40;99.90;;;;;;5049616;28;20033;-87
2022/03/05 00:39:34;;;;;;;12.70;3.13;;;6.40;99.90;;;;;;5049351;28;20016;-87
2022/03/05 00:42:00;;;;;;;9.10;2.63;;;6.40;99.90;;;;;;5050184;28;20056;-87
2022/03/05 00:44:25;;;;;;;13.90;3.97;;;6.40;99.90;;;;;;5048453;28;20524;-87
2022/03/05 00:46:51;;;;;;;8.98;3.15;;;6.40;99.90;;;;;;5050063;28;20482;-87
2022/03/05 00:49:17;;;;;;;9.98;2.97;;;6.40;99.90;;;;;;5050318;28;20525;-86
2022/03/05 00:51:43;;;;;;;7.95;2.85;;;6.40;99.90;;;;;;5048183;28;20452;-87
2022/03/05 00:54:08;;;;;;;10.18;2.92;;;6.40;99.90;;;;;;5050901;28;20409;-86
2022/03/05 00:56:34;;;;;;;9.82;3.13;;;6.40;99.90;;;;;;5049326;28;20060;-87
2022/03/05 00:59:00;;;;;;;7.47;2.83;;;6.40;99.90;;;;;;5050206;28;20025;-86
2022/03/05 01:01:26;;;;;;;18.02;3.70;;;6.40;99.90;;;;;;5050297;28;20032;-86
2022/03/05 01:03:52;;;;;;;8.40;3.42;;;6.40;99.90;;;;;;5047935;28;20029;-86
2022/03/05 01:06:18;;;;;;;7.82;2.72;;;6.40;99.90;;;;;;5050057;28;20544;-85
2022/03/05 01:08:43;;;;;;;12.95;4.07;;;6.40;99.90;;;;;;5049931;28;20380;-85
2022/03/05 01:11:12;;;;;;;14.68;4.28;;;6.40;99.90;;;;;;5051879;28;20524;-86
2022/03/05 01:13:37;;;;;;;11.90;3.25;;;6.40;99.90;;;;;;5049732;28;20025;-85
2022/03/05 01:16:04;;;;;;;13.95;3.65;;;6.40;99.90;;;;;;5048830;28;20414;-86
2022/03/05 01:18:29;;;;;;;10.38;2.88;;;6.40;99.90;;;;;;5049129;28;20530;-86
2022/03/05 01:20:55;;;;;;;11.20;3.22;;;6.40;99.90;;;;;;5050044;28;20036;-85
2022/03/05 01:23:21;;;;;;;7.55;2.80;;;6.40;99.90;;;;;;5048728;28;20092;-86
2022/03/05 01:25:46;;;;;;;8.75;3.42;;;6.30;99.90;;;;;;5048637;28;20446;-86
2022/03/05 01:28:12;;;;;;;16.25;2.75;;;6.40;99.90;;;;;;5049611;28;20029;-86
2022/03/05 01:30:38;;;;;;;8.23;2.85;;;6.40;99.90;;;;;;5049815;28;20406;-85
2022/03/05 01:33:04;;;;;;;9.20;3.15;;;6.40;99.90;;;;;;5049995;28;20461;-85
2022/03/05 01:35:30;;;;;;;10.20;2.95;;;6.40;99.90;;;;;;5049959;28;20094;-85
2022/03/05 01:37:56;;;;;;;7.85;2.40;;;6.40;99.90;;;;;;5050812;28;20441;-85
2022/03/05 01:40:22;;;;;;;16.83;4.00;;;6.40;99.90;;;;;;5049496;28;20059;-85
2022/03/05 01:42:48;;;;;;;9.15;3.13;;;6.40;99.90;;;;;;5046785;28;20062;-86
2022/03/05 01:45:14;;;;;;;8.82;3.00;;;6.40;99.90;;;;;;5049214;28;20075;-85
2022/03/05 01:47:41;;;;;;;8.63;2.92;;;6.40;99.90;;;;;;5048306;28;20041;-86
2022/03/05 01:50:08;;;;;;;9.73;3.00;;;6.40;99.90;;;;;;5051274;28;20052;-85
2022/03/05 01:52:34;;;;;;;6.93;2.78;;;6.40;99.90;;;;;;5047930;28;20029;-85
2022/03/05 01:55:01;;;;;;;11.30;3.85;;;6.40;99.90;;;;;;5049494;28;20033;-85
2022/03/05 01:57:27;;;;;;;7.10;2.50;;;6.40;99.90;;;;;;5047329;28;20585;-85
2022/03/05 01:59:53;;;;;;;13.38;3.55;;;6.40;99.90;;;;;;5049652;28;20111;-85
2022/03/05 02:02:19;;;;;;;8.38;3.17;;;6.40;99.90;;;;;;5040728;28;20053;-86
2022/03/05 02:04:45;;;;;;;9.13;3.05;;;6.40;99.90;;;;;;5046388;28;20037;-85
2022/03/05 02:07:11;;;;;;;9.23;2.97;;;6.40;99.90;;;;;;5048676;28;20443;-85
2022/03/05 02:09:37;;;;;;;8.48;3.42;;;6.40;99.90;;;;;;5048300;28;20025;-86
2022/03/05 02:12:03;;;;;;;6.15;2.92;;;6.30;99.90;;;;;;5049581;28;20398;-85
2022/03/05 02:14:29;;;;;;;9.38;2.80;;;6.40;99.90;;;;;;5048785;28;20104;-85
2022/03/05 02:16:55;;;;;;;11.00;3.17;;;6.30;99.90;;;;;;5049617;28;20037;-85
2022/03/05 02:19:21;;;;;;;10.15;2.90;;;6.40;99.90;;;;;;5048768;28;20037;-85
2022/03/05 02:21:47;;;;;;;8.65;2.60;;;6.40;99.90;;;;;;5046209;28;20021;-85
2022/03/05 02:24:31;;;;;;;8.10;2.95;;;6.40;99.90;;;;;;5048918;28;20088;-85
2022/03/05 02:26:58;;;;;;;7.35;2.53;;;6.30;99.90;;;;;;5045643;28;20020;-86
2022/03/05 02:29:25;;;;;;;8.15;2.53;;;6.40;99.90;;;;;;5049763;28;20154;-85
2022/03/05 02:31:51;;;;;;;11.05;2.60;;;6.40;99.90;;;;;;5049811;28;20585;-85
2022/03/05 02:34:17;;;;;;;7.78;3.08;;;6.30;99.90;;;;;;5048134;28;20113;-85
2022/03/05 02:36:43;;;;;;;9.45;2.53;;;6.30;99.90;;;;;;5046619;28;20056;-85
2022/03/05 02:39:08;;;;;;;8.20;2.65;;;6.30;99.90;;;;;;5046791;28;20025;-85
2022/03/05 02:41:35;;;;;;;7.35;2.65;;;6.30;99.90;;;;;;5046851;28;20141;-85
2022/03/05 02:44:01;;;;;;;9.65;2.83;;;6.40;99.90;;;;;;5048434;28;20029;-85
2022/03/05 02:46:28;;;;;;;8.25;2.42;;;6.30;99.90;;;;;;5048624;28;20024;-85
2022/03/05 02:48:53;;;;;;;8.10;2.67;;;6.40;99.90;;;;;;5047868;28;20495;-86
2022/03/05 02:51:20;;;;;;;11.80;3.58;;;6.30;99.90;;;;;;5047457;28;20027;-85
2022/03/05 02:53:47;;;;;;;10.25;3.70;;;6.40;99.90;;;;;;5037822;28;20104;-85
2022/03/05 02:56:12;;;;;;;11.93;3.10;;;6.40;99.90;;;;;;5050411;28;20087;-85
2022/03/05 02:58:38;;;;;;;8.25;2.80;;;6.40;99.90;;;;;;5045257;28;20037;-86
2022/03/05 03:01:04;;;;;;;10.32;3.67;;;6.30;99.90;;;;;;5046898;28;20397;-86
2022/03/05 03:03:30;;;;;;;8.40;3.00;;;6.30;99.90;;;;;;5043548;28;20033;-85
2022/03/05 03:05:55;;;;;;;10.57;2.90;;;6.40;99.90;;;;;;5048160;28;20375;-85
2022/03/05 03:08:21;;;;;;;12.52;3.72;;;6.30;99.90;;;;;;5050495;28;20025;-85
2022/03/05 03:10:47;;;;;;;11.43;4.07;;;6.30;99.90;;;;;;5048084;28;20451;-85
2022/03/05 03:13:13;;;;;;;12.25;3.20;;;6.30;99.90;;;;;;5030387;28;20384;-86
2022/03/05 03:15:39;;;;;;;10.48;4.28;;;6.30;99.90;;;;;;5038294;28;20029;-85
2022/03/05 03:18:05;;;;;;;12.25;3.72;;;6.30;99.90;;;;;;5048655;28;20060;-86
2022/03/05 03:20:31;;;;;;;18.23;3.40;;;6.30;99.90;;;;;;5047346;28;20021;-86
2022/03/05 03:22:57;;;;;;;17.83;5.20;;;6.30;99.90;;;;;;5053456;28;20087;-86
2022/03/05 03:25:23;;;;;;;11.93;4.60;;;6.30;99.90;;;;;;5051994;28;20033;-86
2022/03/05 03:27:49;;;;;;;12.32;3.85;;;6.30;99.90;;;;;;5052045;28;20017;-86
2022/03/05 03:30:16;;;;;;;10.43;3.92;;;6.30;99.90;;;;;;5039054;28;20024;-86
2022/03/05 03:32:43;;;;;;;18.40;4.07;;;6.30;99.90;;;;;;5051122;28;20029;-86
2022/03/05 03:35:12;;;;;;;15.23;4.53;;;6.30;99.90;;;;;;5049271;28;20036;-85
2022/03/05 03:37:38;;;;;;;12.88;3.35;;;6.30;99.90;;;;;;5049557;28;20029;-85
2022/03/05 03:40:06;;;;;;;14.05;3.78;;;6.30;99.90;;;;;;5051890;28;20074;-86
2022/03/05 03:42:33;;;;;;;20.70;3.97;;;6.30;99.90;;;;;;5048959;28;20021;-86
2022/03/05 03:44:58;;;;;;;20.38;4.10;;;6.30;99.90;;;;;;5051802;28;20029;-86
2022/03/05 03:47:24;;;;;;;14.52;3.83;;;6.30;99.90;;;;;;5022273;28;20392;-86
2022/03/05 03:49:50;;;;;;;17.35;4.13;;;6.30;99.90;;;;;;5045022;28;20052;-86
2022/03/05 03:52:16;;;;;;;15.73;3.00;;;6.30;99.90;;;;;;5046915;28;20406;-85
2022/03/05 03:54:44;;;;;;;10.63;3.45;;;6.30;99.90;;;;;;5047980;28;20142;-86
2022/03/05 03:57:11;;;;;;;12.38;3.60;;;6.30;99.90;;;;;;5052015;28;20128;-86
2022/03/05 03:59:37;;;;;;;14.98;3.50;;;6.30;99.90;;;;;;5049898;28;20075;-85
2022/03/05 04:02:04;;;;;;;13.45;3.10;;;6.30;99.90;;;;;;5053679;28;20498;-86
2022/03/05 04:04:31;;;;;;;13.55;3.15;;;6.30;99.90;;;;;;5051175;28;20506;-85
2022/03/05 04:09:41;;;;;;;11.25;3.00;;;6.30;99.90;;;;;;5040318;28;20032;-85
2022/03/05 04:12:08;;;;;;;12.80;3.70;;;6.30;99.90;;;;;;5049717;28;20032;-86
2022/03/05 04:14:34;;;;;;;11.13;3.33;;;6.40;99.90;;;;;;5049374;28;20021;-86
2022/03/05 04:17:00;;;;;;;10.00;3.33;;;6.30;99.90;;;;;;5050811;28;20021;-86
2022/03/05 04:19:26;;;;;;;14.27;3.30;;;6.40;99.90;;;;;;5050859;28;20025;-85
2022/03/05 04:21:52;;;;;;;11.63;3.85;;;6.30;99.90;;;;;;5050999;28;20402;-85
2022/03/05 04:24:17;;;;;;;16.80;4.20;;;6.30;99.90;;;;;;5051195;28;20033;-86
2022/03/05 04:26:43;;;;;;;17.17;4.10;;;6.30;99.90;;;;;;5049982;28;20032;-85
2022/03/05 04:29:09;;;;;;;11.98;3.67;;;6.30;99.90;;;;;;5053283;28;20506;-86
2022/03/05 04:31:35;;;;;;;10.00;4.40;;;6.30;99.90;;;;;;5049004;28;20576;-86
2022/03/05 04:34:00;;;;;;;15.02;4.45;;;6.30;99.90;;;;;;5047197;28;20124;-86
2022/03/05 04:36:26;;;;;;;13.10;3.50;;;6.30;99.90;;;;;;5049185;28;20118;-86
2022/03/05 04:38:52;;;;;;;11.32;4.00;;;6.30;99.90;;;;;;5051060;28;20402;-86
2022/03/05 04:41:18;;;;;;;11.30;3.47;;;6.30;99.90;;;;;;5052837;28;20057;-86
2022/03/05 04:43:44;;;;;;;17.52;3.63;;;6.30;99.90;;;;;;5050688;28;20022;-86
2022/03/05 04:46:11;;;;;;;11.93;3.80;;;6.30;99.90;;;;;;5050809;28;20464;-86
2022/03/05 04:48:37;;;;;;;8.27;3.10;;;6.30;99.90;;;;;;5048208;28;20053;-85
2022/03/05 04:51:03;;;;;;;9.13;3.17;;;6.40;99.90;;;;;;5041477;28;20494;-85
2022/03/05 04:53:29;;;;;;;9.00;2.83;;;6.30;99.90;;;;;;5051608;28;20025;-85
2022/03/05 04:55:54;;;;;;;13.32;2.95;;;6.40;99.90;;;;;;5048495;28;20108;-86
2022/03/05 04:58:20;;;;;;;8.05;3.05;;;6.30;99.90;;;;;;5050483;28;20406;-85
2022/03/05 05:00:47;;;;;;;10.90;4.47;;;6.30;99.90;;;;;;5050180;28;20506;-85
2022/03/05 05:03:12;;;;;;;11.68;3.85;;;6.30;99.90;;;;;;5050824;28;20017;-85
2022/03/05 05:05:38;;;;;;;9.52;2.50;;;6.30;99.90;;;;;;5049174;28;20047;-86
2022/03/05 05:08:04;;;;;;;11.57;3.45;;;6.40;99.90;;;;;;5052130;28;20628;-86
2022/03/05 05:10:30;;;;;;;8.38;3.40;;;6.30;99.90;;;;;;5049011;28;20100;-86
2022/03/05 05:12:56;;;;;;;8.10;2.78;;;6.30;99.90;;;;;;5046894;28;20109;-85
2022/03/05 05:15:22;;;;;;;8.02;3.33;;;6.30;99.90;;;;;;5048835;28;20554;-86
2022/03/05 05:17:49;;;;;;;11.40;2.92;;;6.30;99.90;;;;;;5050214;28;20514;-86
2022/03/05 05:20:14;;;;;;;8.25;3.55;;;6.30;99.90;;;;;;5051976;28;20033;-86
2022/03/05 05:22:41;;;;;;;8.38;3.13;;;6.30;99.90;;;;;;5050273;28;20520;-85
2022/03/05 05:25:07;;;;;;;6.63;2.83;;;6.30;99.90;;;;;;5050340;28;20091;-85
2022/03/05 05:27:37;;;;;;;8.25;3.30;;;6.30;99.90;;;;;;5048100;28;20025;-86
2022/03/05 05:30:04;;;;;;;10.13;3.15;;;6.30;99.90;;;;;;5048554;28;20029;-86
2022/03/05 05:32:30;;;;;;;6.35;2.63;;;6.30;99.90;;;;;;5047619;28;20021;-85
2022/03/05 05:34:55;;;;;;;13.63;3.22;;;6.30;99.90;;;;;;5047810;28;20418;-85
2022/03/05 05:37:21;;;;;;;9.43;3.10;;;6.30;99.90;;;;;;5031443;28;20044;-85
2022/03/05 05:39:47;;;;;;;8.80;2.97;;;6.30;99.90;;;;;;5049812;28;20482;-86
2022/03/05 05:42:13;;;;;;;10.38;3.38;;;6.30;99.90;;;;;;5049931;28;20024;-85
2022/03/05 05:44:39;;;;;;;13.57;3.75;;;6.30;99.90;;;;;;5048413;28;20036;-85
2022/03/05 05:47:05;;;;;;;12.07;3.20;;;6.30;99.90;;;;;;5051619;28;20506;-85
2022/03/05 05:49:31;;;;;;;22.65;4.18;;;6.30;99.90;;;;;;5047063;28;20795;-85
2022/03/05 05:51:57;;;;;;;17.60;3.72;;;6.30;99.90;;;;;;5038845;28;20025;-85
2022/03/05 05:54:23;;;;;;;12.13;3.83;;;6.30;99.90;;;;;;5048789;28;20025;-85
2022/03/05 05:56:49;;;;;;;17.70;4.70;;;6.30;99.90;;;;;;5049362;28;20020;-86
2022/03/05 05:59:16;;;;;;;17.73;4.78;;;6.40;99.90;;;;;;5051264;28;20402;-85
2022/03/05 06:01:42;;;;;;;18.33;5.63;;;6.30;99.90;;;;;;5049366;28;20032;-85
2022/03/05 06:04:07;;;;;;;10.82;3.72;;;6.30;99.90;;;;;;5049317;28;20040;-85
2022/03/05 06:06:33;;;;;;;10.65;3.33;;;6.30;99.90;;;;;;5047054;28;20390;-86
2022/03/05 06:08:59;;;;;;;14.65;3.97;;;6.40;99.90;;;;;;5049207;28;20087;-85
2022/03/05 06:11:25;;;;;;;14.88;3.50;;;6.40;99.90;;;;;;5049974;28;20049;-85
2022/03/05 06:13:50;;;;;;;21.33;4.43;;;6.40;99.90;;;;;;5047647;28;20040;-85
2022/03/05 06:16:16;;;;;;;12.00;3.67;;;6.30;99.90;;;;;;5048685;28;20040;-85
2022/03/05 06:18:42;;;;;;;20.38;4.00;;;6.40;99.90;;;;;;5048804;28;20029;-85
2022/03/05 06:21:08;;;;;;;11.77;3.50;;;6.30;99.90;;;;;;5049415;28;20478;-86
2022/03/05 06:23:35;;;;;;;15.88;4.25;;;6.40;99.90;;;;;;5049101;28;20049;-85
2022/03/05 06:26:00;;;;;;;9.75;3.15;;;6.40;99.90;;;;;;5050179;28;20025;-85
2022/03/05 06:28:27;;;;;;;11.57;3.17;;;6.40;99.90;;;;;;5047274;28;20447;-85
2022/03/05 06:30:53;;;;;;;14.07;3.75;;;6.40;99.90;;;;;;5045130;28;20036;-85
2022/03/05 06:33:19;;;;;;;9.18;3.78;;;6.40;99.90;;;;;;5048184;28;20029;-85
2022/03/05 06:35:44;;;;;;;16.52;3.72;;;6.40;99.90;;;;;;5048256;28;20029;-85
2022/03/05 06:38:11;;;;;;;9.45;3.03;;;6.30;99.90;;;;;;5050443;28;20036;-85
2022/03/05 06:40:37;;;;;;;9.90;3.35;;;6.30;99.90;;;;;;5048815;28;20033;-86
2022/03/05 06:43:03;;;;;;;8.15;3.05;;;6.40;99.90;;;;;;5048483;28;20059;-85
2022/03/05 06:45:29;;;;;;;12.07;3.45;;;6.40;99.90;;;;;;5046244;28;20033;-85
2022/03/05 06:47:54;;;;;;;11.77;3.55;;;6.40;99.90;;;;;;5048483;28;20530;-85
2022/03/05 06:50:20;;;;;;;8.32;3.28;;;6.40;99.90;;;;;;5043296;28;20534;-85
2022/03/05 06:52:46;;;;;;;13.88;3.53;;;6.40;99.90;;;;;;5045636;28;20494;-85
2022/03/05 06:55:14;;;;;;;8.32;2.83;;;6.40;99.90;;;;;;5048293;28;20033;-85
2022/03/05 06:57:41;;;;;;;8.15;2.85;;;6.40;99.90;;;;;;5048364;28;20025;-85
2022/03/05 07:00:08;;;;;;;9.07;2.88;;;6.40;99.90;;;;;;5048798;28;20067;-84
2022/03/05 07:02:34;;;;;;;8.07;2.70;;;6.50;99.90;;;;;;5048847;28;20056;-85
2022/03/05 07:05:00;;;;;;;9.77;2.55;;;6.50;99.90;;;;;;5049948;28;20048;-85
2022/03/05 07:07:26;;;;;;;14.10;3.30;;;6.50;99.90;;;;;;5046838;28;20025;-85
2022/03/05 07:09:52;;;;;;;10.95;3.17;;;6.50;99.90;;;;;;5045281;28;20025;-85
2022/03/05 07:12:17;;;;;;;12.32;3.45;;;6.50;99.90;;;;;;5047752;28;20025;-85
2022/03/05 07:14:48;;;;;;;12.82;3.58;;;6.50;99.90;;;;;;5047338;28;20495;-85
2022/03/05 07:17:18;;;;;;;11.00;3.95;;;6.50;99.90;;;;;;5050272;28;20021;-85
2022/03/05 07:19:44;;;;;;;14.80;4.95;;;6.50;99.90;;;;;;5048348;28;20032;-85
2022/03/05 07:22:10;;;;;;;17.80;4.85;;;6.50;99.90;;;;;;5048210;28;20025;-85
2022/03/05 07:24:36;;;;;;;11.35;3.85;;;6.50;99.90;;;;;;5045796;28;20024;-85
2022/03/05 07:27:02;;;;;;;16.33;5.53;;;6.50;99.90;;;;;;5047227;28;20487;-85
2022/03/05 07:29:28;;;;;;;9.23;3.92;;;6.60;99.90;;;;;;5045787;28;20076;-85
2022/03/05 07:31:53;;;;;;;12.88;4.75;;;6.60;99.90;;;;;;5047153;28;20025;-85
2022/03/05 07:34:19;;;;;;;14.45;4.90;;;6.60;99.90;;;;;;5047834;28;20029;-85
2022/03/05 07:36:45;;;;;;;21.00;4.85;;;6.60;99.90;;;;;;5047806;28;20024;-85
2022/03/05 07:39:11;;;;;;;14.07;3.90;;;6.70;99.90;;;;;;5048403;28;20025;-85
2022/03/05 07:41:37;;;;;;;21.75;5.65;;;6.70;99.90;;;;;;5047214;28;20607;-85
2022/03/05 07:44:05;;;;;;;15.43;4.28;;;6.70;99.90;;;;;;5047827;28;20013;-85
2022/03/05 07:46:32;;;;;;;13.65;4.45;;;6.80;99.90;;;;;;5046970;28;20037;-85
2022/03/05 07:48:58;;;;;;;22.77;4.47;;;6.70;99.90;;;;;;5044426;28;20064;-85
2022/03/05 07:51:24;;;;;;;11.48;4.70;;;6.80;99.90;;;;;;5041126;28;20487;-85
2022/03/05 07:53:50;;;;;;;18.40;4.82;;;6.80;99.90;;;;;;5048551;28;20101;-85
2022/03/05 07:56:16;;;;;;;19.40;5.22;;;6.80;99.90;;;;;;5049274;28;20557;-85
2022/03/05 07:58:42;;;;;;;11.68;4.43;;;6.80;99.90;;;;;;5047808;28;20025;-85
2022/03/05 08:01:07;;;;;;;14.95;4.75;;;6.90;99.90;;;;;;5048238;28;20112;-85
2022/03/05 08:03:33;;;;;;;17.42;4.38;;;6.90;99.90;;;;;;5047217;28;20017;-85
2022/03/05 08:06:00;;;;;;;13.18;4.40;;;6.90;99.90;;;;;;5047046;28;20037;-85
2022/03/05 08:08:25;;;;;;;17.60;4.35;;;7.00;99.90;;;;;;5051841;28;20031;-85
2022/03/05 08:10:51;;;;;;;17.17;5.10;;;7.00;99.90;;;;;;5048797;28;20029;-85
2022/03/05 08:13:17;;;;;;;15.88;5.55;;;7.00;99.90;;;;;;5050361;28;20375;-85
2022/03/05 08:15:43;;;;;;;9.98;4.07;;;7.10;99.90;;;;;;5051249;28;20122;-85
2022/03/05 08:18:09;;;;;;;27.15;6.20;;;7.10;99.90;;;;;;5051593;28;20454;-85
2022/03/05 08:20:35;;;;;;;20.33;5.25;;;7.10;99.90;;;;;;5038976;28;20033;-85
2022/03/05 08:23:01;;;;;;;9.30;4.60;;;7.10;99.90;;;;;;5052951;28;20025;-85
2022/03/05 08:25:27;;;;;;;10.65;4.75;;;7.10;99.90;;;;;;5048636;28;20068;-85
2022/03/05 08:27:53;;;;;;;18.50;5.18;;;7.10;99.90;;;;;;5050887;28;20025;-85
2022/03/05 08:30:20;;;;;;;18.58;5.40;;;7.10;99.90;;;;;;5048940;28;20482;-85
2022/03/05 08:32:46;;;;;;;16.27;5.80;;;7.10;99.90;;;;;;5050271;28;20097;-85
2022/03/05 08:35:12;;;;;;;16.45;5.65;;;7.30;99.90;;;;;;5052547;28;20036;-85
2022/03/05 08:37:39;;;;;;;16.00;4.85;;;7.30;99.90;;;;;;5050902;28;20052;-85
2022/03/05 08:40:07;;;;;;;9.85;4.50;;;7.30;99.90;;;;;;5050580;28;20048;-84
2022/03/05 08:42:34;;;;;;;13.93;4.25;;;7.40;99.90;;;;;;5050821;28;20104;-85
2022/03/05 08:45:00;;;;;;;21.02;5.72;;;7.40;99.90;;;;;;5050764;28;20021;-85
2022/03/05 08:47:25;;;;;;;16.50;5.35;;;7.40;99.90;;;;;;5051597;28;20021;-85
2022/03/05 08:49:51;;;;;;;15.88;4.70;;;7.30;99.90;;;;;;5048254;28;20090;-86
2022/03/05 08:52:17;;;;;;;23.20;6.43;;;7.30;99.90;;;;;;5028074;28;20111;-85
2022/03/05 08:54:43;;;;;;;17.27;5.40;;;7.40;99.90;;;;;;5032243;28;20036;-85
2022/03/05 08:57:11;;;;;;;18.65;4.97;;;7.50;99.90;;;;;;5050790;28;20021;-85
2022/03/05 08:59:37;;;;;;;16.40;4.40;;;7.60;99.90;;;;;;5050496;28;20052;-85
2022/03/05 09:02:03;;;;;;;13.38;4.70;;;7.70;99.90;;;;;;5052300;28;20017;-85
2022/03/05 09:04:29;;;;;;;15.00;5.63;;;7.70;99.90;;;;;;5048911;28;20043;-85
2022/03/05 09:06:54;;;;;;;13.65;5.03;;;7.60;99.90;;;;;;5045251;28;20035;-85
2022/03/05 09:09:20;;;;;;;14.95;5.47;;;7.70;99.90;;;;;;5050402;28;20478;-85
2022/03/05 09:11:46;;;;;;;12.82;6.28;;;7.70;99.90;;;;;;5050299;28;20052;-85
2022/03/05 09:14:11;;;;;;;12.05;5.78;;;7.70;99.90;;;;;;5051676;28;20131;-85
2022/03/05 09:16:39;;;;;;;18.38;5.93;;;7.60;99.90;;;;;;5049890;28;20032;-85
2022/03/05 09:19:05;;;;;;;16.77;5.13;;;7.60;99.90;;;;;;5049877;28;20033;-85
2022/03/05 09:21:32;;;;;;;15.57;7.00;;;7.70;99.90;;;;;;5049762;28;20032;-85
2022/03/05 09:23:57;;;;;;;23.50;6.20;;;7.70;99.90;;;;;;5049580;28;20033;-85
2022/03/05 09:26:24;;;;;;;15.27;6.07;;;7.70;99.90;;;;;;5052236;28;20024;-85
2022/03/05 09:28:50;;;;;;;18.77;5.93;;;7.60;99.90;;;;;;5047550;28;20033;-85
2022/03/05 09:31:17;;;;;;;15.32;5.50;;;7.70;99.90;;;;;;5031323;28;20111;-85
2022/03/05 09:33:43;;;;;;;13.82;5.93;;;7.70;99.90;;;;;;5049797;28;20098;-85
2022/03/05 09:36:09;;;;;;;16.42;6.60;;;7.80;99.90;;;;;;5049821;28;20021;-85
2022/03/05 09:38:38;;;;;;;23.65;6.38;;;8.00;99.90;;;;;;5049733;28;20036;-85
2022/03/05 09:41:05;;;;;;;22.13;7.68;;;8.10;99.90;;;;;;5051980;28;20079;-85
2022/03/05 09:43:31;;;;;;;24.77;7.07;;;8.10;99.90;;;;;;5048592;28;20037;-85
2022/03/05 09:45:58;;;;;;;14.88;8.25;;;8.20;99.90;;;;;;5045991;28;20108;-85
2022/03/05 09:48:26;;;;;;;11.20;5.57;;;8.20;99.90;;;;;;5048566;28;20520;-85
2022/03/05 09:50:52;;;;;;;12.70;6.05;;;8.30;99.90;;;;;;5041587;28;20082;-85
2022/03/05 09:53:22;;;;;;;12.82;6.40;;;8.40;99.90;;;;;;5051431;28;20049;-85
2022/03/05 09:55:49;;;;;;;17.73;6.70;;;8.40;99.90;;;;;;5049499;28;20040;-85
2022/03/05 09:58:16;;;;;;;11.60;5.20;;;8.40;99.90;;;;;;5049721;28;20025;-85
2022/03/05 10:00:43;;;;;;;12.93;6.47;;;8.30;99.90;;;;;;5047150;28;20021;-85
2022/03/05 10:03:13;;;;;;;11.60;5.10;;;8.30;99.90;;;;;;5046781;28;20074;-85
2022/03/05 10:05:38;;;;;;;14.50;5.35;;;8.40;99.90;;;;;;5047435;28;20070;-85
2022/03/05 10:08:15;;;;;;;10.70;4.78;;;8.40;99.90;;;;;;5048685;28;20457;-85
2022/03/05 10:10:50;;;;;;;7.97;4.63;;;8.50;99.90;;;;;;5048919;28;20056;-85
2022/03/05 10:13:25;;;;;;;9.68;5.05;;;8.60;99.90;;;;;;5049059;28;20040;-85
2022/03/05 10:15:56;;;;;;;9.55;5.78;;;8.80;99.90;;;;;;5047932;28;20025;-85
2022/03/05 10:18:30;;;;;;;15.27;5.57;;;8.80;99.90;;;;;;5049018;28;20075;-85
2022/03/05 10:20:58;;;;;;;9.82;5.22;;;8.80;99.90;;;;;;5044381;28;20271;-85
2022/03/05 10:23:24;;;;;;;18.05;6.15;;;8.90;99.90;;;;;;5051023;28;20049;-85
2022/03/05 10:25:52;;;;;;;10.57;5.32;;;9.00;99.90;;;;;;5045827;28;20086;-85
2022/03/05 10:28:19;;;;;;;10.32;5.03;;;9.10;99.90;;;;;;5046705;28;20048;-85
2022/03/05 10:31:07;;;;;;;11.45;5.05;;;9.20;99.90;;;;;;5048187;28;20021;-85
2022/03/05 10:33:37;;;;;;;11.65;5.30;;;9.30;99.90;;;;;;5048631;28;20024;-85
2022/03/05 10:36:07;;;;;;;141.93;67.72;;;9.20;99.90;;;;;;5047953;28;20078;-85
2022/03/05 10:38:46;;;;;;;90.45;48.53;;;9.10;99.90;;;;;;5049168;28;20075;-85
2022/03/05 10:41:17;;;;;;;32.90;19.33;;;9.10;99.90;;;;;;5049640;28;20025;-86
2022/03/05 10:44:02;;;;;;;24.42;13.93;;;8.90;99.90;;;;;;5044327;28;20578;-86
2022/03/05 10:46:48;;;;;;;25.20;11.23;;;9.00;99.90;;;;;;5046244;28;20036;-85
2022/03/05 10:49:23;;;;;;;12.52;9.00;;;9.00;99.90;;;;;;5025323;28;20056;-85
2022/03/05 10:51:50;;;;;;;16.83;7.15;;;9.00;99.90;;;;;;5045535;28;20017;-85
2022/03/05 10:54:44;;;;;;;10.77;6.75;;;9.10;99.90;;;;;;5048780;28;20143;-85
2022/03/05 10:57:18;;;;;;;8.68;5.70;;;9.30;99.90;;;;;;5047290;28;20506;-85
2022/03/05 10:59:46;;;;;;;11.38;5.97;;;9.40;99.90;;;;;;5048625;28;20124;-85
2022/03/05 11:02:15;;;;;;;9.52;5.25;;;9.50;99.90;;;;;;5049357;28;20025;-85
2022/03/05 11:04:42;;;;;;;9.48;4.60;;;9.60;99.90;;;;;;5043922;28;20036;-85
2022/03/05 11:07:09;;;;;;;9.07;5.15;;;9.60;99.90;;;;;;5046704;28;20029;-85
2022/03/05 11:09:37;;;;;;;9.15;5.45;;;9.60;99.90;;;;;;5048394;28;20017;-86
2022/03/05 11:12:04;;;;;;;11.68;4.90;;;9.50;99.90;;;;;;5048529;28;20059;-86
2022/03/05 11:14:29;;;;;;;10.75;5.57;;;9.60;99.90;;;;;;5049056;28;20013;-85
2022/03/05 11:16:56;;;;;;;10.43;4.93;;;9.60;99.90;;;;;;5042050;28;20029;-86
2022/03/05 11:19:26;;;;;;;11.02;5.32;;;9.70;99.90;;;;;;5041909;28;20029;-85
2022/03/05 11:21:53;;;;;;;5.72;3.80;;;9.80;99.90;;;;;;5048023;28;20116;-85
2022/03/05 11:24:20;;;;;;;5.63;3.67;;;9.90;99.90;;;;;;5048577;28;20117;-85
2022/03/05 11:26:52;;;;;;;7.93;3.67;;;9.90;99.90;;;;;;5048366;28;20158;-86
2022/03/05 11:29:27;;;;;;;7.97;4.13;;;9.90;99.90;;;;;;5049971;28;20028;-85
2022/03/05 11:31:53;;;;;;;6.40;3.28;;;9.90;99.90;;;;;;5048995;28;20033;-85
2022/03/05 11:34:23;;;;;;;4.07;3.10;;;10.00;99.90;;;;;;5047880;28;20033;-85
2022/03/05 11:36:52;;;;;;;3.97;3.03;;;10.20;99.90;;;;;;5046813;28;20524;-85
2022/03/05 11:39:20;;;;;;;7.68;3.53;;;10.20;99.90;;;;;;5047110;28;20103;-86
2022/03/05 11:42:05;;;;;;;6.45;3.60;;;10.10;99.90;;;;;;5050408;28;20029;-85
2022/03/05 11:44:37;;;;;;;6.30;3.67;;;10.10;99.90;;;;;;5049834;28;20025;-85
2022/03/05 11:47:18;;;;;;;8.93;4.45;;;10.00;99.90;;;;;;5051329;28;20025;-85
2022/03/05 11:49:59;;;;;;;7.53;3.13;;;10.10;99.90;;;;;;5051657;28;20048;-85
2022/03/05 11:52:39;;;;;;;5.27;3.57;;;10.30;99.90;;;;;;5049744;28;20029;-85
2022/03/05 11:55:11;;;;;;;7.30;2.78;;;10.30;99.90;;;;;;5051886;28;20791;-86
2022/03/05 11:57:51;;;;;;;5.40;3.50;;;10.40;99.90;;;;;;5050804;28;20025;-85
2022/03/05 12:00:35;;;;;;;4.13;3.03;;;10.40;99.90;;;;;;5055077;28;20025;-85
2022/03/05 12:03:03;;;;;;;5.45;3.33;;;10.40;99.90;;;;;;5044545;28;20021;-85
2022/03/05 12:05:38;;;;;;;5.95;3.13;;;10.50;99.90;;;;;;5030637;28;20029;-85
2022/03/05 12:08:05;;;;;;;8.77;3.55;;;10.60;99.90;;;;;;5052033;28;20031;-85
2022/03/05 12:10:33;;;;;;;4.57;2.55;;;10.80;99.90;;;;;;5051520;28;20017;-86
2022/03/05 12:13:01;;;;;;;5.05;2.55;;;10.90;99.90;;;;;;5051365;28;20506;-85
2022/03/05 12:15:32;;;;;;;9.02;3.03;;;11.00;99.90;;;;;;5051038;28;20104;-85
2022/03/05 12:18:00;;;;;;;4.38;2.47;;;11.00;99.90;;;;;;5049236;28;20024;-85
2022/03/05 12:20:29;;;;;;;5.20;2.35;;;11.00;99.90;;;;;;5051931;28;20035;-85
2022/03/05 12:23:04;;;;;;;7.53;3.85;;;11.20;99.90;;;;;;5048645;28;20039;-85
2022/03/05 12:25:41;;;;;;;6.68;2.30;;;11.10;99.90;;;;;;5048950;28;20029;-85
2022/03/05 12:28:15;;;;;;;10.23;3.72;;;11.10;99.90;;;;;;5051112;28;20036;-86
2022/03/05 12:30:41;;;;;;;8.55;4.03;;;11.00;99.90;;;;;;5050694;28;20041;-85
2022/03/05 12:33:09;;;;;;;7.03;3.40;;;11.00;99.90;;;;;;5051349;28;20048;-85
2022/03/05 12:35:36;;;;;;;7.45;2.70;;;11.10;99.90;;;;;;5050834;28;20028;-85
2022/03/05 12:38:03;;;;;;;5.75;2.65;;;11.20;99.90;;;;;;5050133;28;20078;-85
2022/03/05 12:40:31;;;;;;;4.25;2.53;;;11.30;99.90;;;;;;5050973;28;20032;-85
2022/03/05 12:42:57;;;;;;;3.65;2.75;;;11.30;99.90;;;;;;5041766;28;20033;-85
2022/03/05 12:45:28;;;;;;;2.92;2.60;;;11.30;99.90;;;;;;5050631;28;20071;-85
2022/03/05 12:48:00;;;;;;;3.40;2.22;;;11.30;99.90;;;;;;5037726;28;20051;-85
2022/03/05 12:50:31;;;;;;;5.38;2.90;;;11.30;99.90;;;;;;5051206;28;20255;-84
2022/03/05 12:53:08;;;;;;;4.93;3.20;;;11.30;99.90;;;;;;5051643;28;20028;-85